createdAt,value
2023-08-17T00:04:02.569Z,46.32
2023-08-17T00:09:25.643Z,46.32
2023-08-17T00:14:47.524Z,46.32
2023-08-17T00:20:11.182Z,46.28
2023-08-17T00:25:33.020Z,45.98
2023-08-17T00:30:55.227Z,46.33
2023-08-17T00:36:17.050Z,46.47
2023-08-17T00:41:38.996Z,46.29
2023-08-17T00:47:01.145Z,46.28
2023-08-17T00:52:23.080Z,46.32
2023-08-17T00:57:45.189Z,46.29
2023-08-17T01:03:07.364Z,46.37
2023-08-17T01:08:30.562Z,46.34
2023-08-17T01:13:59.453Z,46.12
2023-08-17T01:19:29.103Z,46.26
2023-08-17T01:24:51.078Z,46.33
2023-08-17T01:30:16.218Z,46.28
2023-08-17T01:35:46.935Z,46.36
2023-08-17T01:41:16.598Z,46.38
2023-08-17T01:46:39.328Z,46.34
2023-08-17T01:52:02.244Z,46.32
2023-08-17T01:57:24.215Z,46.52
2023-08-17T02:02:46.507Z,46.23
2023-08-17T02:08:09.225Z,46.19
2023-08-17T02:13:31.070Z,46.34
2023-08-17T02:18:52.970Z,46.36
2023-08-17T02:24:14.878Z,46.31
2023-08-17T02:29:36.706Z,46.01
2023-08-17T02:34:58.551Z,46.19
2023-08-17T02:40:20.488Z,46.20
2023-08-17T02:45:42.508Z,46.18
2023-08-17T02:51:04.556Z,46.22
2023-08-17T02:56:26.600Z,46.13
2023-08-17T03:01:48.573Z,46.22
2023-08-17T03:07:10.483Z,46.17
2023-08-17T03:12:32.432Z,45.96
2023-08-17T03:17:54.365Z,45.89
2023-08-17T03:23:16.267Z,45.91
2023-08-17T03:28:38.339Z,46.22
2023-08-17T03:34:01.670Z,46.19
2023-08-17T03:39:23.603Z,46.01
2023-08-17T03:44:45.500Z,46.11
2023-08-17T03:50:08.287Z,46.10
2023-08-17T03:55:30.191Z,46.13
2023-08-17T04:00:53.083Z,45.92
2023-08-17T04:06:15.494Z,46.15
2023-08-17T04:11:38.077Z,46.11
2023-08-17T04:17:00.068Z,46.02
2023-08-17T04:22:21.947Z,46.00
2023-08-17T04:27:43.865Z,45.94
2023-08-17T04:33:06.499Z,46.03
2023-08-17T04:38:28.650Z,45.84
2023-08-17T04:43:50.772Z,45.90
2023-08-17T04:49:12.699Z,45.87
2023-08-17T04:54:35.418Z,46.10
2023-08-17T04:59:57.349Z,45.64
2023-08-17T05:05:19.377Z,46.08
2023-08-17T05:10:41.329Z,46.23
2023-08-17T05:16:03.207Z,46.17
2023-08-17T05:21:25.217Z,46.29
2023-08-17T05:26:47.291Z,45.71
2023-08-17T05:32:09.416Z,46.23
2023-08-17T05:37:31.333Z,45.83
2023-08-17T05:42:53.188Z,46.11
2023-08-17T05:48:15.223Z,45.97
2023-08-17T05:53:37.109Z,46.24
2023-08-17T05:58:59.032Z,45.94
2023-08-17T06:04:22.121Z,45.90
2023-08-17T06:09:43.996Z,45.97
2023-08-17T06:15:06.494Z,46.02
2023-08-17T06:20:28.390Z,45.69
2023-08-17T06:25:50.516Z,46.13
2023-08-17T06:31:16.203Z,45.84
2023-08-17T06:36:40.849Z,45.81
2023-08-17T06:42:02.896Z,45.81
2023-08-17T06:47:25.229Z,45.87
2023-08-17T06:52:47.298Z,46.07
2023-08-17T06:58:09.206Z,45.58
2023-08-17T07:03:31.244Z,45.65
2023-08-17T07:08:54.093Z,45.42
2023-08-17T07:14:16.447Z,45.95
2023-08-17T07:19:59.411Z,46.16
2023-08-17T07:25:20.169Z,45.87
2023-08-17T07:30:42.166Z,45.86
2023-08-17T07:36:04.469Z,45.85
2023-08-17T07:41:27.384Z,45.63
2023-08-17T07:46:49.409Z,45.76
2023-08-17T07:52:11.294Z,45.95
2023-08-17T07:57:33.225Z,45.58
2023-08-17T08:02:55.278Z,45.67
2023-08-17T08:08:18.873Z,45.45
2023-08-17T08:13:40.714Z,45.35
2023-08-17T08:19:02.968Z,45.37
2023-08-17T08:24:36.777Z,45.37
2023-08-17T08:30:00.132Z,45.42
2023-08-17T08:35:23.739Z,45.54
2023-08-17T08:40:48.324Z,45.93
2023-08-17T08:46:10.826Z,45.50
2023-08-17T08:51:35.747Z,45.64
2023-08-17T08:57:04.818Z,45.39
2023-08-17T09:02:27.060Z,45.71
2023-08-17T09:07:50.922Z,45.76
2023-08-17T09:13:13.043Z,45.73
2023-08-17T09:18:39.356Z,45.85
2023-08-17T09:24:01.527Z,45.83
2023-08-17T09:29:24.480Z,45.92
2023-08-17T09:34:49.076Z,45.64
2023-08-17T09:40:11.508Z,45.83
2023-08-17T09:45:34.630Z,45.41
2023-08-17T09:50:59.955Z,45.95
2023-08-17T09:56:23.233Z,45.82
2023-08-17T10:01:47.420Z,45.76
2023-08-17T10:07:12.437Z,45.84
2023-08-17T10:12:39.512Z,45.92
2023-08-17T10:18:16.546Z,45.79
2023-08-17T10:23:42.874Z,45.86
2023-08-17T10:34:35.879Z,45.60
2023-08-17T10:39:57.876Z,45.88
2023-08-17T10:45:39.308Z,45.79
2023-08-17T10:51:04.846Z,45.91
2023-08-17T10:56:29.754Z,45.80
2023-08-17T11:01:53.013Z,45.93
2023-08-17T11:07:17.424Z,45.96
2023-08-17T11:12:39.721Z,45.95
2023-08-17T11:18:01.728Z,46.00
2023-08-17T11:23:26.024Z,46.24
2023-08-17T11:28:48.588Z,45.72
2023-08-17T11:34:16.661Z,46.07
2023-08-17T11:39:38.940Z,46.09
2023-08-17T11:45:00.904Z,46.15
2023-08-17T11:50:22.870Z,46.35
2023-08-17T11:55:45.410Z,46.16
2023-08-17T12:01:10.662Z,45.89
2023-08-17T12:06:32.578Z,46.16
2023-08-17T12:12:01.488Z,46.41
2023-08-17T12:17:23.404Z,46.10
2023-08-17T12:22:45.646Z,46.21
2023-08-17T12:28:07.648Z,46.55
2023-08-17T12:33:29.795Z,46.34
2023-08-17T12:38:52.006Z,46.25
2023-08-17T12:44:17.737Z,46.29
2023-08-17T12:49:40.233Z,46.13
2023-08-17T12:55:02.596Z,46.08
2023-08-17T13:00:24.448Z,46.32
2023-08-17T13:05:46.362Z,46.22
2023-08-17T13:11:08.368Z,46.30
2023-08-17T13:16:30.405Z,46.23
2023-08-17T13:21:52.361Z,46.25
2023-08-17T13:27:14.382Z,46.11
2023-08-17T13:32:36.623Z,46.38
2023-08-17T13:37:59.026Z,46.34
2023-08-17T13:43:20.879Z,46.57
2023-08-17T13:48:42.965Z,46.40
2023-08-17T13:54:05.217Z,46.48
2023-08-17T13:59:27.265Z,46.65
2023-08-17T14:04:49.211Z,46.33
2023-08-17T14:10:18.590Z,46.69
2023-08-17T14:15:43.579Z,46.10
2023-08-17T14:21:05.525Z,46.56
2023-08-17T14:26:27.469Z,46.48
2023-08-17T14:31:56.087Z,46.58
2023-08-17T14:37:18.295Z,46.51
2023-08-17T14:42:40.120Z,46.46
2023-08-17T14:48:02.115Z,46.78
2023-08-17T14:53:23.975Z,46.68
2023-08-17T14:58:45.834Z,46.46
2023-08-17T15:04:07.725Z,46.90
2023-08-17T15:09:30.317Z,47.01
2023-08-17T15:14:52.285Z,46.78
2023-08-17T15:20:14.341Z,46.89
2023-08-17T15:25:36.373Z,46.60
2023-08-17T15:31:03.758Z,47.10
2023-08-17T15:36:27.790Z,46.81
2023-08-17T15:41:49.745Z,46.98
2023-08-17T15:47:11.636Z,47.09
2023-08-17T15:52:33.529Z,46.86
2023-08-17T15:57:55.566Z,46.95
2023-08-17T16:03:17.608Z,47.01
2023-08-17T16:14:09.071Z,46.92
2023-08-17T16:19:30.897Z,47.04
2023-08-17T16:24:52.763Z,46.99
2023-08-17T16:30:14.684Z,46.94
2023-08-17T16:35:37.609Z,46.95
2023-08-17T16:40:59.532Z,47.23
2023-08-17T16:46:21.548Z,47.06
2023-08-17T16:51:43.488Z,47.06
2023-08-17T16:57:05.490Z,47.09
2023-08-17T17:02:27.405Z,47.30
2023-08-17T17:07:49.418Z,47.02
2023-08-17T17:13:11.695Z,47.26
2023-08-17T17:18:33.658Z,47.13
2023-08-17T17:23:55.644Z,47.43
2023-08-17T17:29:17.633Z,47.33
2023-08-17T17:34:39.590Z,47.20
2023-08-17T17:40:01.544Z,47.23
2023-08-17T17:45:23.786Z,47.19
2023-08-17T17:50:46.233Z,47.00
2023-08-17T17:56:12.283Z,47.49
2023-08-17T18:01:34.697Z,47.47
2023-08-17T18:06:56.569Z,47.33
2023-08-17T18:12:18.399Z,47.54
2023-08-17T18:17:40.797Z,47.44
2023-08-17T18:23:03.297Z,47.56
2023-08-17T18:28:25.185Z,47.59
2023-08-17T18:33:47.240Z,47.64
2023-08-17T18:39:09.581Z,47.60
2023-08-17T18:44:31.618Z,47.57
2023-08-17T18:49:53.476Z,47.59
2023-08-17T18:55:15.644Z,47.48
2023-08-17T19:00:38.453Z,47.97
2023-08-17T19:06:00.439Z,47.61
2023-08-17T19:11:22.283Z,47.72
2023-08-17T19:16:44.214Z,47.82
2023-08-17T19:22:06.415Z,47.35
2023-08-17T19:27:28.762Z,47.75
2023-08-17T19:32:58.795Z,47.49
2023-08-17T19:38:20.821Z,47.74
2023-08-17T19:43:42.694Z,47.57
2023-08-17T19:49:05.542Z,47.56
2023-08-17T19:54:27.392Z,47.91
2023-08-17T19:59:49.465Z,48.08
2023-08-17T20:05:11.592Z,47.97
2023-08-17T20:10:33.447Z,47.69
2023-08-17T20:15:56.269Z,47.94
2023-08-17T20:21:18.166Z,48.21
2023-08-17T20:26:40.081Z,47.86
2023-08-17T20:32:02.065Z,47.92
2023-08-17T20:37:24.078Z,47.95
2023-08-17T20:42:45.932Z,47.91
2023-08-17T20:48:08.038Z,48.02
2023-08-17T20:53:29.875Z,48.23
2023-08-17T20:58:51.871Z,47.93
2023-08-17T21:04:13.812Z,47.95
2023-08-17T21:09:35.758Z,48.00
2023-08-17T21:14:58.948Z,47.97
2023-08-17T21:20:21.001Z,47.89
2023-08-17T21:25:50.092Z,48.09
2023-08-17T21:31:12.156Z,48.01
2023-08-17T21:36:34.183Z,48.03
2023-08-17T21:41:56.112Z,48.17
2023-08-17T21:47:18.087Z,48.31
2023-08-17T21:52:39.987Z,47.89
2023-08-17T21:58:02.355Z,48.51
2023-08-17T22:03:24.308Z,48.05
2023-08-17T22:08:46.299Z,48.20
2023-08-17T22:14:08.143Z,48.10
2023-08-17T22:19:30.724Z,48.25
2023-08-17T22:24:52.606Z,48.13
2023-08-17T22:30:14.632Z,48.58
2023-08-17T22:35:36.489Z,48.38
2023-08-17T22:40:58.475Z,48.19
2023-08-17T22:46:20.536Z,48.32
2023-08-17T22:51:43.081Z,48.21
2023-08-17T22:57:05.223Z,48.24
2023-08-17T23:02:27.223Z,48.01
2023-08-17T23:07:49.401Z,48.03
2023-08-17T23:13:11.373Z,48.21
2023-08-17T23:18:33.330Z,48.42
2023-08-17T23:23:55.187Z,48.41
2023-08-17T23:29:17.109Z,48.62
2023-08-17T23:34:38.985Z,48.70
2023-08-17T23:40:01.201Z,48.25
2023-08-17T23:45:23.353Z,48.48
2023-08-17T23:50:45.392Z,48.20
2023-08-17T23:56:08.482Z,48.25
